sensor_id;sensor_type;location;lat;lon;timestamp;temperature;humidity
14924;DHT22;7554;43.600;1.480;2023-10-19T00:02:39;17.30;1.00
14924;DHT22;7554;43.600;1.480;2023-10-19T00:12:32;17.40;1.00
14924;DHT22;7554;43.600;1.480;2023-10-19T00:15:00;17.40;1.00
14924;DHT22;7554;43.600;1.480;2023-10-19T00:17:29;17.40;1.00
14924;DHT22;7554;43.600;1.480;2023-10-19T00:19:58;17.50;1.00
14924;DHT22;7554;43.600;1.480;2023-10-19T00:22:51;17.50;1.00
14924;DHT22;7554;43.600;1.480;2023-10-19T00:25:22;17.50;1.00
14924;DHT22;7554;43.600;1.480;2023-10-19T00:28:21;17.40;1.00
14924;DHT22;7554;43.600;1.480;2023-10-19T00:34:03;17.30;1.00
14924;DHT22;7554;43.600;1.480;2023-10-19T00:36:32;17.30;1.00
14924;DHT22;7554;43.600;1.480;2023-10-19T00:45:39;17.30;1.00
14924;DHT22;7554;43.600;1.480;2023-10-19T00:48:08;17.10;1.00
14924;DHT22;7554;43.600;1.480;2023-10-19T00:50:37;17.20;1.00
14924;DHT22;7554;43.600;1.480;2023-10-19T00:53:06;17.20;1.00
14924;DHT22;7554;43.600;1.480;2023-10-19T00:59:11;17.10;1.00
14924;DHT22;7554;43.600;1.480;2023-10-19T01:05:34;17.10;1.00
14924;DHT22;7554;43.600;1.480;2023-10-19T01:08:03;17.20;1.00
14924;DHT22;7554;43.600;1.480;2023-10-19T01:10:40;17.20;1.00
14924;DHT22;7554;43.600;1.480;2023-10-19T01:13:11;17.20;1.00
14924;DHT22;7554;43.600;1.480;2023-10-19T01:15:42;17.30;1.00
14924;DHT22;7554;43.600;1.480;2023-10-19T01:18:15;17.30;1.00
14924;DHT22;7554;43.600;1.480;2023-10-19T01:20:44;17.30;1.00
14924;DHT22;7554;43.600;1.480;2023-10-19T01:23:17;17.30;1.00
14924;DHT22;7554;43.600;1.480;2023-10-19T01:28:52;17.30;1.00
14924;DHT22;7554;43.600;1.480;2023-10-19T01:31:26;17.40;1.00
14924;DHT22;7554;43.600;1.480;2023-10-19T01:34:04;17.40;1.00
14924;DHT22;7554;43.600;1.480;2023-10-19T01:36:34;17.40;1.00
14924;DHT22;7554;43.600;1.480;2023-10-19T01:39:09;17.40;1.00
14924;DHT22;7554;43.600;1.480;2023-10-19T01:41:37;17.50;1.00
14924;DHT22;7554;43.600;1.480;2023-10-19T01:44:09;17.50;1.00
14924;DHT22;7554;43.600;1.480;2023-10-19T01:46:39;17.50;1.00
14924;DHT22;7554;43.600;1.480;2023-10-19T01:49:09;17.50;1.00
14924;DHT22;7554;43.600;1.480;2023-10-19T01:51:36;17.80;1.00
14924;DHT22;7554;43.600;1.480;2023-10-19T01:54:05;17.90;1.00
14924;DHT22;7554;43.600;1.480;2023-10-19T01:56:34;18.00;1.00
14924;DHT22;7554;43.600;1.480;2023-10-19T01:59:03;18.10;1.00
14924;DHT22;7554;43.600;1.480;2023-10-19T02:01:33;18.10;1.00
14924;DHT22;7554;43.600;1.480;2023-10-19T02:04:04;18.30;1.00
14924;DHT22;7554;43.600;1.480;2023-10-19T02:06:33;18.20;1.00
14924;DHT22;7554;43.600;1.480;2023-10-19T02:09:03;18.20;1.00
14924;DHT22;7554;43.600;1.480;2023-10-19T02:11:36;18.20;1.00
14924;DHT22;7554;43.600;1.480;2023-10-19T02:14:08;18.20;1.00
14924;DHT22;7554;43.600;1.480;2023-10-19T02:16:40;18.10;1.00
14924;DHT22;7554;43.600;1.480;2023-10-19T02:19:09;18.20;1.00
14924;DHT22;7554;43.600;1.480;2023-10-19T02:21:35;18.20;1.00
14924;DHT22;7554;43.600;1.480;2023-10-19T02:24:06;18.20;1.00
14924;DHT22;7554;43.600;1.480;2023-10-19T02:26:33;18.20;1.00
14924;DHT22;7554;43.600;1.480;2023-10-19T02:29:03;18.20;1.00
14924;DHT22;7554;43.600;1.480;2023-10-19T02:31:34;18.20;1.00
14924;DHT22;7554;43.600;1.480;2023-10-19T02:34:04;18.20;1.00
14924;DHT22;7554;43.600;1.480;2023-10-19T02:36:31;18.30;1.00
14924;DHT22;7554;43.600;1.480;2023-10-19T02:39:00;18.30;1.00
14924;DHT22;7554;43.600;1.480;2023-10-19T02:41:33;18.20;1.00
14924;DHT22;7554;43.600;1.480;2023-10-19T02:44:08;18.20;1.00
14924;DHT22;7554;43.600;1.480;2023-10-19T02:46:35;18.30;1.00
14924;DHT22;7554;43.600;1.480;2023-10-19T02:49:05;18.30;1.00
14924;DHT22;7554;43.600;1.480;2023-10-19T02:51:36;18.20;1.00
14924;DHT22;7554;43.600;1.480;2023-10-19T02:54:06;18.20;1.00
14924;DHT22;7554;43.600;1.480;2023-10-19T02:56:34;18.20;1.00
14924;DHT22;7554;43.600;1.480;2023-10-19T02:59:02;18.20;1.00
14924;DHT22;7554;43.600;1.480;2023-10-19T03:01:31;18.20;1.00
14924;DHT22;7554;43.600;1.480;2023-10-19T03:04:00;18.20;1.00
14924;DHT22;7554;43.600;1.480;2023-10-19T03:06:28;18.30;1.00
14924;DHT22;7554;43.600;1.480;2023-10-19T03:08:59;18.30;1.00
14924;DHT22;7554;43.600;1.480;2023-10-19T03:11:28;18.30;1.00
14924;DHT22;7554;43.600;1.480;2023-10-19T03:13:56;18.30;1.00
14924;DHT22;7554;43.600;1.480;2023-10-19T03:16:23;18.30;1.00
14924;DHT22;7554;43.600;1.480;2023-10-19T03:18:55;18.30;1.00
14924;DHT22;7554;43.600;1.480;2023-10-19T03:21:22;18.30;1.00
14924;DHT22;7554;43.600;1.480;2023-10-19T03:23:53;18.40;1.00
14924;DHT22;7554;43.600;1.480;2023-10-19T03:26:20;18.40;1.00
14924;DHT22;7554;43.600;1.480;2023-10-19T03:28:53;18.40;1.00
14924;DHT22;7554;43.600;1.480;2023-10-19T03:31:22;18.40;1.00
14924;DHT22;7554;43.600;1.480;2023-10-19T03:33:51;18.40;1.00
14924;DHT22;7554;43.600;1.480;2023-10-19T03:36:24;18.40;1.00
14924;DHT22;7554;43.600;1.480;2023-10-19T03:38:51;18.50;1.00
14924;DHT22;7554;43.600;1.480;2023-10-19T03:41:19;18.40;1.00
14924;DHT22;7554;43.600;1.480;2023-10-19T03:43:53;18.50;1.00
14924;DHT22;7554;43.600;1.480;2023-10-19T03:46:23;18.40;1.00
14924;DHT22;7554;43.600;1.480;2023-10-19T03:48:55;18.40;1.00
14924;DHT22;7554;43.600;1.480;2023-10-19T03:51:26;18.40;1.00
14924;DHT22;7554;43.600;1.480;2023-10-19T03:54:05;18.40;1.00
14924;DHT22;7554;43.600;1.480;2023-10-19T03:56:49;18.40;1.00
14924;DHT22;7554;43.600;1.480;2023-10-19T03:59:17;18.50;1.00
14924;DHT22;7554;43.600;1.480;2023-10-19T04:01:45;18.50;1.00
14924;DHT22;7554;43.600;1.480;2023-10-19T04:04:12;18.40;1.00
14924;DHT22;7554;43.600;1.480;2023-10-19T04:06:43;18.40;1.00
14924;DHT22;7554;43.600;1.480;2023-10-19T04:09:15;18.50;1.00
14924;DHT22;7554;43.600;1.480;2023-10-19T04:11:44;18.50;1.00
14924;DHT22;7554;43.600;1.480;2023-10-19T04:14:18;18.40;1.00
14924;DHT22;7554;43.600;1.480;2023-10-19T04:16:47;18.40;1.00
14924;DHT22;7554;43.600;1.480;2023-10-19T04:19:15;18.50;1.00
14924;DHT22;7554;43.600;1.480;2023-10-19T04:21:44;18.50;1.00
14924;DHT22;7554;43.600;1.480;2023-10-19T04:24:12;18.50;1.00
14924;DHT22;7554;43.600;1.480;2023-10-19T04:26:40;18.50;1.00
14924;DHT22;7554;43.600;1.480;2023-10-19T04:29:08;18.50;1.00
14924;DHT22;7554;43.600;1.480;2023-10-19T04:31:39;18.40;1.00
14924;DHT22;7554;43.600;1.480;2023-10-19T04:34:15;18.40;1.00
14924;DHT22;7554;43.600;1.480;2023-10-19T04:36:47;18.40;1.00
14924;DHT22;7554;43.600;1.480;2023-10-19T04:39:15;18.40;1.00
14924;DHT22;7554;43.600;1.480;2023-10-19T04:41:45;18.40;1.00
14924;DHT22;7554;43.600;1.480;2023-10-19T04:44:14;18.40;1.00
14924;DHT22;7554;43.600;1.480;2023-10-19T04:46:42;18.40;1.00
14924;DHT22;7554;43.600;1.480;2023-10-19T04:49:09;18.40;1.00
14924;DHT22;7554;43.600;1.480;2023-10-19T04:51:37;18.40;1.00
14924;DHT22;7554;43.600;1.480;2023-10-19T04:54:06;18.30;1.00
14924;DHT22;7554;43.600;1.480;2023-10-19T04:56:34;18.30;1.00
14924;DHT22;7554;43.600;1.480;2023-10-19T04:59:02;18.40;1.00
14924;DHT22;7554;43.600;1.480;2023-10-19T05:01:30;18.40;1.00
14924;DHT22;7554;43.600;1.480;2023-10-19T05:03:59;18.40;1.00
14924;DHT22;7554;43.600;1.480;2023-10-19T05:06:27;18.40;1.00
14924;DHT22;7554;43.600;1.480;2023-10-19T05:08:54;18.40;1.00
14924;DHT22;7554;43.600;1.480;2023-10-19T05:11:24;18.40;1.00
14924;DHT22;7554;43.600;1.480;2023-10-19T05:13:52;18.40;1.00
14924;DHT22;7554;43.600;1.480;2023-10-19T05:16:20;18.40;1.00
14924;DHT22;7554;43.600;1.480;2023-10-19T05:18:49;18.30;1.00
14924;DHT22;7554;43.600;1.480;2023-10-19T05:21:17;18.30;1.00
14924;DHT22;7554;43.600;1.480;2023-10-19T05:23:47;18.30;1.00
14924;DHT22;7554;43.600;1.480;2023-10-19T05:26:14;18.30;1.00
14924;DHT22;7554;43.600;1.480;2023-10-19T05:28:44;18.30;1.00
14924;DHT22;7554;43.600;1.480;2023-10-19T05:31:13;18.30;1.00
14924;DHT22;7554;43.600;1.480;2023-10-19T05:33:41;18.30;1.00
14924;DHT22;7554;43.600;1.480;2023-10-19T05:36:08;18.20;1.00
14924;DHT22;7554;43.600;1.480;2023-10-19T05:38:36;18.20;1.00
14924;DHT22;7554;43.600;1.480;2023-10-19T05:41:03;18.20;1.00
14924;DHT22;7554;43.600;1.480;2023-10-19T05:43:32;18.10;1.00
14924;DHT22;7554;43.600;1.480;2023-10-19T05:46:01;18.10;1.00
14924;DHT22;7554;43.600;1.480;2023-10-19T05:48:29;18.10;1.00
14924;DHT22;7554;43.600;1.480;2023-10-19T05:50:56;18.00;1.00
14924;DHT22;7554;43.600;1.480;2023-10-19T05:53:24;18.00;1.00
14924;DHT22;7554;43.600;1.480;2023-10-19T05:55:51;17.90;1.00
14924;DHT22;7554;43.600;1.480;2023-10-19T05:58:21;17.90;1.00
14924;DHT22;7554;43.600;1.480;2023-10-19T06:00:49;17.80;1.00
14924;DHT22;7554;43.600;1.480;2023-10-19T06:03:19;17.80;1.00
14924;DHT22;7554;43.600;1.480;2023-10-19T06:05:46;17.80;1.00
14924;DHT22;7554;43.600;1.480;2023-10-19T06:08:15;17.70;1.00
14924;DHT22;7554;43.600;1.480;2023-10-19T06:10:51;17.70;1.00
14924;DHT22;7554;43.600;1.480;2023-10-19T06:13:19;17.80;1.00
14924;DHT22;7554;43.600;1.480;2023-10-19T06:15:53;17.70;1.00
14924;DHT22;7554;43.600;1.480;2023-10-19T06:18:30;17.80;1.00
14924;DHT22;7554;43.600;1.480;2023-10-19T06:20:57;17.70;1.00
14924;DHT22;7554;43.600;1.480;2023-10-19T06:23:25;17.60;1.00
14924;DHT22;7554;43.600;1.480;2023-10-19T06:25:54;17.60;1.00
14924;DHT22;7554;43.600;1.480;2023-10-19T06:28:22;17.60;1.00
14924;DHT22;7554;43.600;1.480;2023-10-19T06:30:49;17.60;1.00
14924;DHT22;7554;43.600;1.480;2023-10-19T06:33:20;17.60;1.00
14924;DHT22;7554;43.600;1.480;2023-10-19T06:35:52;18.40;1.00
14924;DHT22;7554;43.600;1.480;2023-10-19T06:38:21;19.00;1.00
14924;DHT22;7554;43.600;1.480;2023-10-19T06:40:51;18.30;1.00
14924;DHT22;7554;43.600;1.480;2023-10-19T06:43:18;18.10;1.00
14924;DHT22;7554;43.600;1.480;2023-10-19T06:45:50;18.10;1.00
14924;DHT22;7554;43.600;1.480;2023-10-19T06:48:21;18.30;1.00
14924;DHT22;7554;43.600;1.480;2023-10-19T06:50:49;18.30;1.00
14924;DHT22;7554;43.600;1.480;2023-10-19T06:53:17;18.30;1.00
14924;DHT22;7554;43.600;1.480;2023-10-19T06:55:44;18.30;1.00
14924;DHT22;7554;43.600;1.480;2023-10-19T06:58:12;18.30;1.00
14924;DHT22;7554;43.600;1.480;2023-10-19T07:00:40;18.40;1.00
14924;DHT22;7554;43.600;1.480;2023-10-19T07:03:09;18.40;1.00
14924;DHT22;7554;43.600;1.480;2023-10-19T07:08:57;18.50;1.00
14924;DHT22;7554;43.600;1.480;2023-10-19T07:11:33;18.50;1.00
14924;DHT22;7554;43.600;1.480;2023-10-19T07:14:03;18.50;1.00
14924;DHT22;7554;43.600;1.480;2023-10-19T07:16:33;18.50;1.00
14924;DHT22;7554;43.600;1.480;2023-10-19T07:19:02;18.60;1.00
14924;DHT22;7554;43.600;1.480;2023-10-19T07:21:42;18.70;1.00
14924;DHT22;7554;43.600;1.480;2023-10-19T07:24:22;18.80;1.00
14924;DHT22;7554;43.600;1.480;2023-10-19T07:26:52;18.80;1.00
14924;DHT22;7554;43.600;1.480;2023-10-19T07:30:19;18.80;1.00
14924;DHT22;7554;43.600;1.480;2023-10-19T07:36:49;18.90;1.00
14924;DHT22;7554;43.600;1.480;2023-10-19T07:39:19;19.00;1.00
14924;DHT22;7554;43.600;1.480;2023-10-19T07:41:58;19.00;1.00
14924;DHT22;7554;43.600;1.480;2023-10-19T07:44:31;19.10;1.00
14924;DHT22;7554;43.600;1.480;2023-10-19T07:50:00;19.00;1.00
14924;DHT22;7554;43.600;1.480;2023-10-19T07:52:52;19.10;1.00
14924;DHT22;7554;43.600;1.480;2023-10-19T07:55:29;19.20;1.00
14924;DHT22;7554;43.600;1.480;2023-10-19T07:57:58;19.30;1.00
14924;DHT22;7554;43.600;1.480;2023-10-19T08:00:42;19.40;1.00
14924;DHT22;7554;43.600;1.480;2023-10-19T08:03:29;19.40;1.00
14924;DHT22;7554;43.600;1.480;2023-10-19T08:06:32;19.20;1.00
14924;DHT22;7554;43.600;1.480;2023-10-19T08:09:05;19.20;1.00
14924;DHT22;7554;43.600;1.480;2023-10-19T08:14:46;20.00;1.00
14924;DHT22;7554;43.600;1.480;2023-10-19T08:17:13;20.30;1.00
14924;DHT22;7554;43.600;1.480;2023-10-19T08:19:41;20.10;1.00
14924;DHT22;7554;43.600;1.480;2023-10-19T08:22:39;20.20;1.00
14924;DHT22;7554;43.600;1.480;2023-10-19T08:25:34;20.20;1.00
14924;DHT22;7554;43.600;1.480;2023-10-19T08:28:15;20.00;1.00
14924;DHT22;7554;43.600;1.480;2023-10-19T08:31:02;19.90;1.00
14924;DHT22;7554;43.600;1.480;2023-10-19T08:33:48;19.70;1.00
14924;DHT22;7554;43.600;1.480;2023-10-19T08:36:27;19.60;1.00
14924;DHT22;7554;43.600;1.480;2023-10-19T08:38:58;19.60;1.00
14924;DHT22;7554;43.600;1.480;2023-10-19T08:41:40;19.60;1.00
14924;DHT22;7554;43.600;1.480;2023-10-19T08:44:09;19.60;1.00
14924;DHT22;7554;43.600;1.480;2023-10-19T08:46:40;19.60;1.00
14924;DHT22;7554;43.600;1.480;2023-10-19T08:49:12;19.50;1.00
14924;DHT22;7554;43.600;1.480;2023-10-19T08:55:01;19.50;1.00
14924;DHT22;7554;43.600;1.480;2023-10-19T09:00:49;19.40;1.00
14924;DHT22;7554;43.600;1.480;2023-10-19T09:07:09;19.40;1.00
14924;DHT22;7554;43.600;1.480;2023-10-19T09:09:37;19.40;1.00
14924;DHT22;7554;43.600;1.480;2023-10-19T09:12:07;19.40;1.00
14924;DHT22;7554;43.600;1.480;2023-10-19T09:14:37;19.50;1.00
14924;DHT22;7554;43.600;1.480;2023-10-19T09:17:07;19.50;1.00
14924;DHT22;7554;43.600;1.480;2023-10-19T09:19:39;19.60;1.00
14924;DHT22;7554;43.600;1.480;2023-10-19T09:22:11;19.50;1.00
14924;DHT22;7554;43.600;1.480;2023-10-19T09:24:49;19.60;1.00
14924;DHT22;7554;43.600;1.480;2023-10-19T09:27:19;19.60;1.00
14924;DHT22;7554;43.600;1.480;2023-10-19T09:29:47;19.70;1.00
14924;DHT22;7554;43.600;1.480;2023-10-19T09:32:17;19.70;1.00
14924;DHT22;7554;43.600;1.480;2023-10-19T09:34:45;19.70;1.00
14924;DHT22;7554;43.600;1.480;2023-10-19T09:37:23;19.60;1.00
14924;DHT22;7554;43.600;1.480;2023-10-19T09:39:52;19.70;1.00
14924;DHT22;7554;43.600;1.480;2023-10-19T09:42:19;19.60;1.00
14924;DHT22;7554;43.600;1.480;2023-10-19T09:44:50;19.50;1.00
14924;DHT22;7554;43.600;1.480;2023-10-19T09:47:27;19.50;1.00
14924;DHT22;7554;43.600;1.480;2023-10-19T09:49:57;19.50;1.00
14924;DHT22;7554;43.600;1.480;2023-10-19T09:52:26;19.50;1.00
14924;DHT22;7554;43.600;1.480;2023-10-19T09:55:00;19.50;1.00
14924;DHT22;7554;43.600;1.480;2023-10-19T09:57:34;19.50;1.00
14924;DHT22;7554;43.600;1.480;2023-10-19T10:00:04;19.50;1.00
14924;DHT22;7554;43.600;1.480;2023-10-19T10:03:03;19.50;1.00
14924;DHT22;7554;43.600;1.480;2023-10-19T10:05:51;19.50;1.00
14924;DHT22;7554;43.600;1.480;2023-10-19T10:11:50;19.50;1.00
14924;DHT22;7554;43.600;1.480;2023-10-19T10:14:23;19.70;1.00
14924;DHT22;7554;43.600;1.480;2023-10-19T10:16:59;19.70;1.00
14924;DHT22;7554;43.600;1.480;2023-10-19T10:19:28;19.90;1.00
14924;DHT22;7554;43.600;1.480;2023-10-19T10:22:07;20.00;1.00
14924;DHT22;7554;43.600;1.480;2023-10-19T10:24:40;20.10;1.00
14924;DHT22;7554;43.600;1.480;2023-10-19T10:27:09;20.10;1.00
14924;DHT22;7554;43.600;1.480;2023-10-19T10:29:54;19.90;1.00
14924;DHT22;7554;43.600;1.480;2023-10-19T10:32:42;20.00;1.00
14924;DHT22;7554;43.600;1.480;2023-10-19T10:35:10;20.10;1.00
14924;DHT22;7554;43.600;1.480;2023-10-19T10:37:37;20.20;1.00
14924;DHT22;7554;43.600;1.480;2023-10-19T10:40:06;20.30;1.00
14924;DHT22;7554;43.600;1.480;2023-10-19T10:43:04;20.50;1.00
14924;DHT22;7554;43.600;1.480;2023-10-19T10:45:31;20.70;1.00
14924;DHT22;7554;43.600;1.480;2023-10-19T10:47:59;20.70;1.00
14924;DHT22;7554;43.600;1.480;2023-10-19T10:50:28;20.90;1.00
14924;DHT22;7554;43.600;1.480;2023-10-19T10:52:56;21.10;1.00
14924;DHT22;7554;43.600;1.480;2023-10-19T10:55:24;21.10;1.00
14924;DHT22;7554;43.600;1.480;2023-10-19T10:57:56;21.00;1.00
14924;DHT22;7554;43.600;1.480;2023-10-19T11:00:23;21.20;1.00
14924;DHT22;7554;43.600;1.480;2023-10-19T11:03:01;21.20;1.00
14924;DHT22;7554;43.600;1.480;2023-10-19T11:05:29;21.00;1.00
14924;DHT22;7554;43.600;1.480;2023-10-19T11:08:08;21.00;1.00
14924;DHT22;7554;43.600;1.480;2023-10-19T11:10:42;21.10;1.00
14924;DHT22;7554;43.600;1.480;2023-10-19T11:13:13;21.10;1.00
14924;DHT22;7554;43.600;1.480;2023-10-19T11:15:49;21.10;1.00
14924;DHT22;7554;43.600;1.480;2023-10-19T11:18:30;21.40;1.00
14924;DHT22;7554;43.600;1.480;2023-10-19T11:21:02;21.60;1.00
14924;DHT22;7554;43.600;1.480;2023-10-19T11:23:40;21.50;1.00
14924;DHT22;7554;43.600;1.480;2023-10-19T11:26:08;21.80;1.00
14924;DHT22;7554;43.600;1.480;2023-10-19T11:28:38;21.90;1.00
14924;DHT22;7554;43.600;1.480;2023-10-19T11:31:37;21.90;1.00
14924;DHT22;7554;43.600;1.480;2023-10-19T11:34:06;22.00;1.00
14924;DHT22;7554;43.600;1.480;2023-10-19T11:36:34;22.00;1.00
14924;DHT22;7554;43.600;1.480;2023-10-19T11:39:02;22.10;1.00
14924;DHT22;7554;43.600;1.480;2023-10-19T11:41:30;22.30;1.00
14924;DHT22;7554;43.600;1.480;2023-10-19T11:43:59;22.20;1.00
14924;DHT22;7554;43.600;1.480;2023-10-19T11:46:29;22.30;1.00
14924;DHT22;7554;43.600;1.480;2023-10-19T11:49:16;22.30;1.00
14924;DHT22;7554;43.600;1.480;2023-10-19T11:51:46;22.50;1.00
14924;DHT22;7554;43.600;1.480;2023-10-19T11:54:13;22.50;1.00
14924;DHT22;7554;43.600;1.480;2023-10-19T11:56:42;22.50;1.00
14924;DHT22;7554;43.600;1.480;2023-10-19T11:59:11;22.50;1.00
14924;DHT22;7554;43.600;1.480;2023-10-19T12:01:41;22.50;1.00
14924;DHT22;7554;43.600;1.480;2023-10-19T12:04:08;22.70;1.00
14924;DHT22;7554;43.600;1.480;2023-10-19T12:06:36;22.80;1.00
14924;DHT22;7554;43.600;1.480;2023-10-19T12:09:04;22.90;1.00
14924;DHT22;7554;43.600;1.480;2023-10-19T12:11:40;22.90;1.00
14924;DHT22;7554;43.600;1.480;2023-10-19T12:14:08;23.00;1.00
14924;DHT22;7554;43.600;1.480;2023-10-19T12:16:39;23.00;1.00
14924;DHT22;7554;43.600;1.480;2023-10-19T12:19:06;23.10;1.00
14924;DHT22;7554;43.600;1.480;2023-10-19T12:21:34;23.00;1.00
14924;DHT22;7554;43.600;1.480;2023-10-19T12:24:04;22.90;1.00
14924;DHT22;7554;43.600;1.480;2023-10-19T12:26:31;22.80;1.00
14924;DHT22;7554;43.600;1.480;2023-10-19T12:28:59;22.80;1.00
14924;DHT22;7554;43.600;1.480;2023-10-19T12:31:26;22.90;1.00
14924;DHT22;7554;43.600;1.480;2023-10-19T12:33:57;22.90;1.00
14924;DHT22;7554;43.600;1.480;2023-10-19T12:36:24;22.90;1.00
14924;DHT22;7554;43.600;1.480;2023-10-19T12:38:58;23.00;1.00
14924;DHT22;7554;43.600;1.480;2023-10-19T12:41:27;23.10;1.00
14924;DHT22;7554;43.600;1.480;2023-10-19T12:43:56;23.10;1.00
14924;DHT22;7554;43.600;1.480;2023-10-19T12:46:24;23.20;1.00
14924;DHT22;7554;43.600;1.480;2023-10-19T12:48:53;23.10;1.00
14924;DHT22;7554;43.600;1.480;2023-10-19T12:51:23;23.00;1.00
14924;DHT22;7554;43.600;1.480;2023-10-19T12:53:51;23.00;1.00
14924;DHT22;7554;43.600;1.480;2023-10-19T12:56:21;22.90;1.00
14924;DHT22;7554;43.600;1.480;2023-10-19T12:58:50;22.80;1.00
14924;DHT22;7554;43.600;1.480;2023-10-19T13:01:17;22.80;1.00
14924;DHT22;7554;43.600;1.480;2023-10-19T13:03:45;22.70;1.00
14924;DHT22;7554;43.600;1.480;2023-10-19T13:06:13;22.70;1.00
14924;DHT22;7554;43.600;1.480;2023-10-19T13:08:42;22.80;1.00
14924;DHT22;7554;43.600;1.480;2023-10-19T13:11:10;22.90;1.00
14924;DHT22;7554;43.600;1.480;2023-10-19T13:13:40;22.80;1.00
14924;DHT22;7554;43.600;1.480;2023-10-19T13:16:07;22.50;1.00
14924;DHT22;7554;43.600;1.480;2023-10-19T13:18:35;22.40;1.00
14924;DHT22;7554;43.600;1.480;2023-10-19T13:21:02;22.40;1.00
14924;DHT22;7554;43.600;1.480;2023-10-19T13:23:31;22.40;1.00
14924;DHT22;7554;43.600;1.480;2023-10-19T13:26:01;22.40;1.00
14924;DHT22;7554;43.600;1.480;2023-10-19T13:28:43;22.20;1.00
14924;DHT22;7554;43.600;1.480;2023-10-19T13:31:10;22.20;1.00
14924;DHT22;7554;43.600;1.480;2023-10-19T13:33:43;22.40;1.00
14924;DHT22;7554;43.600;1.480;2023-10-19T13:36:12;22.60;1.00
14924;DHT22;7554;43.600;1.480;2023-10-19T13:38:39;22.60;1.00
14924;DHT22;7554;43.600;1.480;2023-10-19T13:41:08;22.40;1.00
14924;DHT22;7554;43.600;1.480;2023-10-19T13:43:37;22.30;1.00
14924;DHT22;7554;43.600;1.480;2023-10-19T13:46:04;22.30;1.00
14924;DHT22;7554;43.600;1.480;2023-10-19T13:48:32;22.20;1.00
14924;DHT22;7554;43.600;1.480;2023-10-19T13:50:59;22.10;1.00
14924;DHT22;7554;43.600;1.480;2023-10-19T13:53:38;21.90;1.00
14924;DHT22;7554;43.600;1.480;2023-10-19T13:56:09;21.90;1.00
14924;DHT22;7554;43.600;1.480;2023-10-19T13:58:37;21.80;1.00
14924;DHT22;7554;43.600;1.480;2023-10-19T14:01:07;21.80;1.00
14924;DHT22;7554;43.600;1.480;2023-10-19T14:03:35;21.80;1.00
14924;DHT22;7554;43.600;1.480;2023-10-19T14:06:03;21.80;1.00
14924;DHT22;7554;43.600;1.480;2023-10-19T14:08:31;21.70;1.00
14924;DHT22;7554;43.600;1.480;2023-10-19T14:11:01;21.70;1.00
14924;DHT22;7554;43.600;1.480;2023-10-19T14:13:33;21.70;1.00
14924;DHT22;7554;43.600;1.480;2023-10-19T14:16:08;21.50;1.00
14924;DHT22;7554;43.600;1.480;2023-10-19T14:18:36;21.50;1.00
14924;DHT22;7554;43.600;1.480;2023-10-19T14:21:11;21.20;1.00
14924;DHT22;7554;43.600;1.480;2023-10-19T14:23:39;21.20;1.00
14924;DHT22;7554;43.600;1.480;2023-10-19T14:26:09;21.20;1.00
14924;DHT22;7554;43.600;1.480;2023-10-19T14:28:39;21.30;1.00
14924;DHT22;7554;43.600;1.480;2023-10-19T14:31:06;21.30;1.00
14924;DHT22;7554;43.600;1.480;2023-10-19T14:33:34;21.10;1.00
14924;DHT22;7554;43.600;1.480;2023-10-19T14:36:02;21.10;1.00
14924;DHT22;7554;43.600;1.480;2023-10-19T14:38:30;21.30;1.00
14924;DHT22;7554;43.600;1.480;2023-10-19T14:40:57;21.30;1.00
14924;DHT22;7554;43.600;1.480;2023-10-19T14:43:25;21.30;1.00
14924;DHT22;7554;43.600;1.480;2023-10-19T14:45:56;21.30;1.00
14924;DHT22;7554;43.600;1.480;2023-10-19T14:48:27;21.30;1.00
14924;DHT22;7554;43.600;1.480;2023-10-19T14:50:56;21.20;1.00
14924;DHT22;7554;43.600;1.480;2023-10-19T14:53:23;21.30;1.00
14924;DHT22;7554;43.600;1.480;2023-10-19T14:55:51;21.30;1.00
14924;DHT22;7554;43.600;1.480;2023-10-19T14:58:19;21.20;1.00
14924;DHT22;7554;43.600;1.480;2023-10-19T15:00:46;21.30;1.00
14924;DHT22;7554;43.600;1.480;2023-10-19T15:03:22;21.30;1.00
14924;DHT22;7554;43.600;1.480;2023-10-19T15:05:51;21.30;1.00
14924;DHT22;7554;43.600;1.480;2023-10-19T15:08:18;21.20;1.00
14924;DHT22;7554;43.600;1.480;2023-10-19T15:10:49;21.20;1.00
14924;DHT22;7554;43.600;1.480;2023-10-19T15:13:20;21.10;1.00
14924;DHT22;7554;43.600;1.480;2023-10-19T15:15:47;21.10;1.00
14924;DHT22;7554;43.600;1.480;2023-10-19T15:18:14;21.10;1.00
14924;DHT22;7554;43.600;1.480;2023-10-19T15:20:43;21.00;1.00
14924;DHT22;7554;43.600;1.480;2023-10-19T15:23:12;20.40;1.00
14924;DHT22;7554;43.600;1.480;2023-10-19T15:25:39;20.00;1.00
14924;DHT22;7554;43.600;1.480;2023-10-19T15:28:07;20.10;1.00
14924;DHT22;7554;43.600;1.480;2023-10-19T15:30:36;20.20;1.00
14924;DHT22;7554;43.600;1.480;2023-10-19T15:33:04;20.30;1.00
14924;DHT22;7554;43.600;1.480;2023-10-19T15:35:31;20.70;1.00
14924;DHT22;7554;43.600;1.480;2023-10-19T15:38:03;20.80;1.00
14924;DHT22;7554;43.600;1.480;2023-10-19T15:40:31;20.80;1.00
14924;DHT22;7554;43.600;1.480;2023-10-19T15:42:59;20.80;1.00
14924;DHT22;7554;43.600;1.480;2023-10-19T15:45:26;20.90;1.00
14924;DHT22;7554;43.600;1.480;2023-10-19T15:47:54;20.90;1.00
14924;DHT22;7554;43.600;1.480;2023-10-19T15:50:22;20.90;1.00
14924;DHT22;7554;43.600;1.480;2023-10-19T15:52:49;21.00;1.00
14924;DHT22;7554;43.600;1.480;2023-10-19T15:55:18;20.90;1.00
14924;DHT22;7554;43.600;1.480;2023-10-19T15:57:47;21.00;1.00
14924;DHT22;7554;43.600;1.480;2023-10-19T16:00:16;20.90;1.00
14924;DHT22;7554;43.600;1.480;2023-10-19T16:02:45;21.00;1.00
14924;DHT22;7554;43.600;1.480;2023-10-19T16:05:13;21.00;1.00
14924;DHT22;7554;43.600;1.480;2023-10-19T16:07:41;21.00;1.00
14924;DHT22;7554;43.600;1.480;2023-10-19T16:10:10;21.00;1.00
14924;DHT22;7554;43.600;1.480;2023-10-19T16:12:41;21.00;1.00
14924;DHT22;7554;43.600;1.480;2023-10-19T16:15:09;21.00;1.00
14924;DHT22;7554;43.600;1.480;2023-10-19T16:17:38;21.00;1.00
14924;DHT22;7554;43.600;1.480;2023-10-19T16:20:07;21.00;1.00
14924;DHT22;7554;43.600;1.480;2023-10-19T16:22:35;21.00;1.00
14924;DHT22;7554;43.600;1.480;2023-10-19T16:25:04;20.90;1.00
14924;DHT22;7554;43.600;1.480;2023-10-19T16:27:32;20.90;1.00
14924;DHT22;7554;43.600;1.480;2023-10-19T16:30:01;20.90;1.00
14924;DHT22;7554;43.600;1.480;2023-10-19T16:32:30;20.90;1.00
14924;DHT22;7554;43.600;1.480;2023-10-19T16:35:01;20.90;1.00
14924;DHT22;7554;43.600;1.480;2023-10-19T16:37:29;20.90;1.00
14924;DHT22;7554;43.600;1.480;2023-10-19T16:39:56;20.90;1.00
14924;DHT22;7554;43.600;1.480;2023-10-19T16:42:24;20.90;1.00
14924;DHT22;7554;43.600;1.480;2023-10-19T16:44:52;20.90;1.00
14924;DHT22;7554;43.600;1.480;2023-10-19T16:47:21;20.80;1.00
14924;DHT22;7554;43.600;1.480;2023-10-19T16:49:48;20.20;1.00
14924;DHT22;7554;43.600;1.480;2023-10-19T16:52:16;20.40;1.00
14924;DHT22;7554;43.600;1.480;2023-10-19T16:54:43;20.50;1.00
14924;DHT22;7554;43.600;1.480;2023-10-19T16:57:11;20.60;1.00
14924;DHT22;7554;43.600;1.480;2023-10-19T16:59:38;20.60;1.00
14924;DHT22;7554;43.600;1.480;2023-10-19T17:02:06;20.50;1.00
14924;DHT22;7554;43.600;1.480;2023-10-19T17:04:34;20.50;1.00
14924;DHT22;7554;43.600;1.480;2023-10-19T17:07:02;20.60;1.00
14924;DHT22;7554;43.600;1.480;2023-10-19T17:09:29;20.60;1.00
14924;DHT22;7554;43.600;1.480;2023-10-19T17:11:57;20.50;1.00
14924;DHT22;7554;43.600;1.480;2023-10-19T17:14:25;20.50;1.00
14924;DHT22;7554;43.600;1.480;2023-10-19T17:16:53;20.50;1.00
14924;DHT22;7554;43.600;1.480;2023-10-19T17:19:21;20.50;1.00
14924;DHT22;7554;43.600;1.480;2023-10-19T17:21:50;20.50;1.00